createdAt,value
2019-03-30T00:00:35.742Z,14.27
2019-03-30T00:03:03.941Z,13.97
2019-03-30T00:05:32.178Z,13.90
2019-03-30T00:08:00.364Z,13.60
2019-03-30T00:10:28.545Z,14.00
2019-03-30T00:12:56.742Z,12.87
2019-03-30T00:15:24.928Z,13.00
2019-03-30T00:17:53.153Z,13.33
2019-03-30T00:20:21.349Z,12.90
2019-03-30T00:22:49.549Z,13.67
2019-03-30T00:25:17.781Z,12.90
2019-03-30T00:27:46.081Z,13.57
2019-03-30T00:30:14.300Z,13.03
2019-03-30T00:32:42.512Z,12.23
2019-03-30T00:35:10.737Z,12.30
2019-03-30T00:37:38.991Z,12.37
2019-03-30T00:40:07.281Z,13.40
2019-03-30T00:42:35.471Z,12.80
2019-03-30T00:45:04.728Z,12.17
2019-03-30T00:47:33.854Z,13.20
2019-03-30T00:50:02.029Z,12.97
2019-03-30T00:52:30.249Z,12.60
2019-03-30T00:54:58.470Z,13.37
2019-03-30T00:57:26.689Z,13.40
2019-03-30T00:59:54.957Z,12.50
2019-03-30T01:02:23.151Z,12.20
2019-03-30T01:04:51.331Z,13.30
2019-03-30T01:07:19.529Z,12.80
2019-03-30T01:09:47.735Z,13.00
2019-03-30T01:12:15.953Z,12.93
2019-03-30T01:14:44.180Z,12.60
2019-03-30T01:17:12.393Z,11.83
2019-03-30T01:19:40.629Z,13.07
2019-03-30T01:22:08.812Z,12.57
2019-03-30T01:24:37.037Z,12.40
2019-03-30T01:27:05.517Z,12.77
2019-03-30T01:29:33.820Z,13.37
2019-03-30T01:32:02.012Z,13.03
2019-03-30T01:34:30.234Z,12.10
2019-03-30T01:36:58.416Z,12.43
2019-03-30T01:39:26.672Z,14.00
2019-03-30T01:41:54.860Z,12.10
2019-03-30T01:44:23.109Z,13.17
2019-03-30T01:46:51.317Z,11.97
2019-03-30T01:49:19.510Z,12.80
2019-03-30T01:51:47.716Z,12.90
2019-03-30T01:54:15.912Z,11.90
2019-03-30T01:56:44.119Z,12.30
2019-03-30T01:59:12.362Z,12.50
2019-03-30T02:01:40.540Z,12.60
2019-03-30T02:04:08.740Z,13.17
2019-03-30T02:06:36.961Z,12.87
2019-03-30T02:09:05.849Z,13.60
2019-03-30T02:11:34.035Z,12.40
2019-03-30T02:14:02.249Z,12.57
2019-03-30T02:16:30.439Z,12.70
2019-03-30T02:18:58.624Z,13.23
2019-03-30T02:21:26.871Z,11.77
2019-03-30T02:23:55.055Z,12.07
2019-03-30T02:26:23.276Z,12.27
2019-03-30T02:28:51.501Z,12.83
2019-03-30T02:31:19.712Z,12.27
2019-03-30T02:33:47.957Z,12.50
2019-03-30T02:36:17.613Z,13.00
2019-03-30T02:38:45.913Z,12.30
2019-03-30T02:41:14.136Z,13.57
2019-03-30T02:43:42.401Z,11.80
2019-03-30T02:46:10.588Z,13.40
2019-03-30T02:48:38.836Z,13.27
2019-03-30T02:51:08.742Z,12.90
2019-03-30T02:53:37.018Z,13.60
2019-03-30T02:56:05.385Z,13.03
2019-03-30T02:58:33.673Z,13.30
2019-03-30T03:01:01.969Z,13.70
2019-03-30T03:03:30.184Z,13.30
2019-03-30T03:05:58.402Z,13.57
2019-03-30T03:08:26.695Z,12.73
2019-03-30T03:10:54.909Z,12.97
2019-03-30T03:13:23.197Z,13.50
2019-03-30T03:15:51.400Z,12.47
2019-03-30T03:18:19.619Z,13.80
2019-03-30T03:21:06.163Z,13.27
2019-03-30T03:23:17.830Z,12.43
2019-03-30T03:25:46.033Z,12.83
2019-03-30T03:28:14.253Z,13.30
2019-03-30T03:30:42.469Z,12.20
2019-03-30T03:33:10.769Z,12.30
2019-03-30T03:35:39.012Z,15.20
2019-03-30T03:38:07.266Z,13.73
2019-03-30T03:40:35.535Z,13.70
2019-03-30T03:43:03.761Z,13.27
2019-03-30T03:45:31.961Z,12.93
2019-03-30T03:48:00.183Z,14.33
2019-03-30T03:50:39.145Z,13.17
2019-03-30T03:53:07.454Z,11.90
2019-03-30T03:55:37.114Z,13.97
2019-03-30T03:58:06.708Z,12.77
2019-03-30T04:00:35.048Z,13.73
2019-03-30T04:03:04.014Z,14.23
2019-03-30T04:05:34.080Z,14.40
2019-03-30T04:08:03.045Z,14.10
2019-03-30T04:10:33.093Z,14.40
2019-03-30T04:13:01.405Z,14.33
2019-03-30T04:15:29.595Z,16.27
2019-03-30T04:17:57.796Z,16.37
2019-03-30T04:20:26.009Z,15.40
2019-03-30T04:22:54.221Z,15.43
2019-03-30T04:25:22.822Z,14.57
2019-03-30T04:27:51.076Z,13.70
2019-03-30T04:30:19.311Z,13.67
2019-03-30T04:32:47.570Z,13.27
2019-03-30T04:35:15.832Z,15.23
2019-03-30T04:37:44.114Z,13.73
2019-03-30T04:40:12.345Z,14.40
2019-03-30T04:42:40.623Z,13.53
2019-03-30T04:45:09.092Z,14.80
2019-03-30T04:47:37.352Z,14.00
2019-03-30T04:50:05.876Z,15.80
2019-03-30T04:52:34.196Z,13.80
2019-03-30T04:55:02.452Z,13.80
2019-03-30T04:57:30.680Z,13.40
2019-03-30T04:59:58.860Z,13.90
2019-03-30T05:02:27.089Z,13.33
2019-03-30T05:04:55.280Z,13.87
2019-03-30T05:07:23.472Z,12.97
2019-03-30T05:09:51.701Z,14.10
2019-03-30T05:12:19.900Z,13.20
2019-03-30T05:14:48.126Z,14.37
2019-03-30T05:17:16.303Z,14.60
2019-03-30T05:19:44.497Z,15.33
2019-03-30T05:22:16.348Z,13.90
2019-03-30T05:24:42.633Z,14.20
2019-03-30T05:27:10.881Z,14.67
2019-03-30T05:29:39.093Z,14.67
2019-03-30T05:32:07.309Z,14.40
2019-03-30T05:34:35.502Z,16.13
2019-03-30T05:37:03.700Z,14.27
2019-03-30T05:39:31.920Z,14.20
2019-03-30T05:42:00.103Z,14.80
2019-03-30T05:44:28.396Z,13.50
2019-03-30T05:46:56.621Z,13.10
2019-03-30T05:49:24.808Z,15.43
2019-03-30T05:51:53.006Z,14.37
2019-03-30T05:54:21.265Z,13.27
2019-03-30T05:56:49.457Z,14.47
2019-03-30T05:59:17.685Z,15.30
2019-03-30T06:01:45.882Z,15.20
2019-03-30T06:04:14.203Z,15.00
2019-03-30T06:06:42.415Z,16.90
2019-03-30T06:09:10.616Z,15.57
2019-03-30T06:11:38.800Z,15.20
2019-03-30T06:14:07.071Z,16.17
2019-03-30T06:16:35.293Z,15.10
2019-03-30T06:19:03.519Z,15.73
2019-03-30T06:21:31.721Z,18.10
2019-03-30T06:24:00.009Z,16.10
2019-03-30T06:26:28.235Z,16.20
2019-03-30T06:28:56.525Z,18.23
2019-03-30T06:31:24.727Z,18.00
2019-03-30T06:33:52.911Z,17.40
2019-03-30T06:36:21.107Z,17.37
2019-03-30T06:38:49.295Z,17.00
2019-03-30T06:41:17.526Z,17.80
2019-03-30T06:43:45.741Z,16.70
2019-03-30T06:46:13.964Z,17.47
2019-03-30T06:48:42.148Z,18.07
2019-03-30T06:51:11.358Z,17.90
2019-03-30T06:53:39.603Z,15.80
2019-03-30T06:56:07.850Z,17.80
2019-03-30T06:58:36.094Z,18.13
2019-03-30T07:01:04.948Z,18.20
2019-03-30T07:03:33.141Z,17.30
2019-03-30T07:06:02.334Z,16.53
2019-03-30T07:08:31.922Z,16.33
2019-03-30T07:11:01.737Z,19.40
2019-03-30T07:13:31.906Z,16.73
2019-03-30T07:16:01.260Z,17.50
2019-03-30T07:18:29.557Z,17.80
2019-03-30T07:20:58.643Z,19.00
2019-03-30T07:23:27.729Z,18.60
2019-03-30T07:25:55.961Z,18.50
2019-03-30T07:28:24.164Z,18.40
2019-03-30T07:30:52.352Z,18.53
2019-03-30T07:33:20.542Z,19.50
2019-03-30T07:35:49.634Z,18.90
2019-03-30T07:38:17.847Z,19.00
2019-03-30T07:40:46.038Z,18.13
2019-03-30T07:43:14.255Z,18.93
2019-03-30T07:45:43.350Z,19.20
2019-03-30T07:48:11.536Z,19.30
2019-03-30T07:50:39.767Z,17.97
2019-03-30T07:53:08.000Z,19.40
2019-03-30T07:55:36.340Z,19.63
2019-03-30T07:58:04.550Z,19.50
2019-03-30T08:00:32.833Z,20.40
2019-03-30T08:03:01.067Z,18.67
2019-03-30T08:05:29.272Z,18.77
2019-03-30T08:07:57.464Z,19.30
2019-03-30T08:10:25.688Z,18.87
2019-03-30T08:12:53.873Z,20.40
2019-03-30T08:15:22.101Z,21.03
2019-03-30T08:17:50.289Z,20.80
2019-03-30T08:20:18.487Z,20.53
2019-03-30T08:22:46.680Z,20.17
2019-03-30T08:25:15.805Z,21.23
2019-03-30T08:27:44.987Z,18.97
2019-03-30T08:30:13.485Z,20.27
2019-03-30T08:32:41.708Z,21.90
2019-03-30T08:35:10.081Z,20.50
2019-03-30T08:37:38.264Z,21.07
2019-03-30T08:40:06.666Z,21.07
2019-03-30T08:42:35.764Z,20.47
2019-03-30T08:45:05.341Z,21.67
2019-03-30T08:47:33.525Z,21.40
2019-03-30T08:50:01.749Z,22.00
2019-03-30T08:52:29.972Z,22.60
2019-03-30T08:54:58.156Z,22.00
2019-03-30T08:57:26.561Z,22.70
2019-03-30T08:59:54.780Z,22.80
2019-03-30T09:02:22.972Z,23.07
2019-03-30T09:04:51.197Z,21.50
2019-03-30T09:07:19.409Z,23.70
2019-03-30T09:09:47.642Z,24.50
2019-03-30T09:12:15.896Z,24.30
2019-03-30T09:14:44.156Z,23.70
2019-03-30T09:17:12.396Z,24.50
2019-03-30T09:19:40.629Z,23.63
2019-03-30T09:22:08.846Z,25.10
2019-03-30T09:24:37.100Z,23.30
2019-03-30T09:27:05.322Z,23.17
2019-03-30T09:29:33.592Z,23.80
2019-03-30T09:32:13.530Z,22.50
2019-03-30T09:34:31.708Z,22.57
2019-03-30T09:36:59.946Z,23.93
2019-03-30T09:39:28.162Z,22.90
2019-03-30T09:41:56.341Z,22.00
2019-03-30T09:44:24.670Z,22.30
2019-03-30T09:46:52.877Z,23.65
2019-03-30T09:49:21.996Z,23.85
2019-03-30T09:51:50.180Z,23.40
2019-03-30T09:54:23.944Z,23.07
2019-03-30T09:56:48.261Z,25.70
2019-03-30T09:59:16.478Z,25.90
2019-03-30T10:01:44.702Z,24.87
2019-03-30T10:04:12.925Z,24.43
2019-03-30T10:06:41.154Z,24.00
2019-03-30T10:09:09.372Z,23.00
2019-03-30T10:11:37.610Z,24.50
2019-03-30T10:14:05.791Z,26.50
2019-03-30T10:16:34.029Z,24.70
2019-03-30T10:19:02.252Z,23.03
2019-03-30T10:21:30.514Z,24.03
2019-03-30T10:23:58.728Z,23.07
2019-03-30T10:26:26.907Z,24.50
2019-03-30T10:28:55.116Z,22.17
2019-03-30T10:31:23.338Z,16.87
2019-03-30T10:33:51.564Z,17.67
2019-03-30T10:36:19.935Z,16.13
2019-03-30T10:38:48.857Z,15.40
2019-03-30T10:41:17.071Z,16.87
2019-03-30T10:43:45.281Z,17.77
2019-03-30T10:46:13.475Z,16.90
2019-03-30T10:48:41.701Z,17.10
2019-03-30T10:51:09.929Z,15.40
2019-03-30T10:53:38.200Z,14.50
2019-03-30T10:56:06.393Z,14.73
2019-03-30T10:58:36.081Z,15.17
2019-03-30T11:01:05.164Z,14.63
2019-03-30T11:03:33.388Z,13.27
2019-03-30T11:06:01.606Z,14.03
2019-03-30T11:08:29.841Z,13.60
2019-03-30T11:10:58.096Z,14.60
2019-03-30T11:13:26.279Z,13.93
2019-03-30T11:15:54.463Z,12.73
2019-03-30T11:18:22.663Z,12.80
2019-03-30T11:20:50.853Z,13.50
2019-03-30T11:23:19.060Z,13.93
2019-03-30T11:25:47.244Z,13.60
2019-03-30T11:28:15.467Z,10.83
2019-03-30T11:30:43.685Z,10.10
2019-03-30T11:33:11.868Z,10.80
2019-03-30T11:35:40.696Z,10.27
2019-03-30T11:38:09.477Z,10.43
2019-03-30T11:40:37.659Z,10.40
2019-03-30T11:43:05.969Z,10.60
2019-03-30T11:48:22.908Z,12.47
2019-03-30T11:50:51.131Z,12.70
2019-03-30T11:53:19.365Z,13.23
2019-03-30T11:55:47.648Z,13.53
2019-03-30T11:58:15.891Z,13.17
2019-03-30T12:00:44.348Z,13.10
2019-03-30T12:03:12.685Z,14.10
2019-03-30T12:05:40.897Z,13.00
2019-03-30T12:10:40.526Z,14.00
2019-03-30T12:13:08.908Z,12.83
2019-03-30T12:15:37.153Z,11.90
2019-03-30T12:18:05.364Z,14.20
2019-03-30T12:20:33.554Z,13.43
2019-03-30T12:23:01.793Z,13.50
2019-03-30T12:25:35.727Z,12.90
2019-03-30T12:28:00.186Z,13.10
2019-03-30T12:30:28.424Z,12.90
2019-03-30T12:32:56.644Z,11.60
2019-03-30T12:35:24.937Z,10.77
2019-03-30T12:37:53.154Z,10.80
2019-03-30T12:40:21.340Z,11.20
2019-03-30T12:42:49.571Z,10.97
2019-03-30T12:45:17.755Z,11.70
2019-03-30T12:47:45.947Z,10.20
2019-03-30T12:50:14.192Z,9.87
2019-03-30T12:52:42.408Z,10.57
2019-03-30T12:55:10.600Z,11.43
2019-03-30T12:57:38.781Z,12.10
2019-03-30T13:00:07.452Z,10.07
2019-03-30T13:05:03.369Z,10.93
2019-03-30T13:07:31.549Z,10.70
2019-03-30T13:09:59.761Z,11.90
2019-03-30T13:12:27.993Z,12.40
2019-03-30T13:14:56.229Z,13.03
2019-03-30T13:17:24.505Z,12.10
2019-03-30T14:11:27.337Z,11.20
2019-03-30T14:13:55.557Z,11.20
2019-03-30T14:16:23.789Z,12.40
2019-03-30T14:18:52.005Z,13.00
2019-03-30T14:21:20.239Z,11.90
2019-03-30T14:23:48.460Z,12.63
2019-03-30T14:26:30.346Z,13.30
2019-03-30T14:28:46.561Z,15.33
2019-03-30T14:31:14.789Z,12.90
2019-03-30T14:33:43.013Z,13.47
2019-03-30T14:36:11.321Z,15.63
2019-03-30T14:38:39.500Z,12.17
2019-03-30T14:41:07.734Z,13.17
2019-03-30T14:43:35.930Z,12.55
2019-03-30T14:46:04.247Z,13.90
2019-03-30T14:50:59.799Z,14.03
2019-03-30T14:53:28.037Z,15.27
2019-03-30T14:55:56.266Z,15.47
2019-03-30T14:58:24.555Z,13.77
2019-03-30T15:00:52.849Z,14.03
2019-03-30T15:03:21.061Z,14.77
2019-03-30T15:05:49.616Z,13.83
2019-03-30T15:08:17.847Z,15.30
2019-03-30T15:10:46.045Z,15.20
2019-03-30T15:13:14.273Z,14.40
2019-03-30T15:15:42.552Z,13.53
2019-03-30T15:18:10.780Z,16.00
2019-03-30T15:20:39.001Z,14.40
2019-03-30T15:23:07.208Z,14.30
2019-03-30T15:25:35.398Z,14.40
2019-03-30T15:28:03.621Z,15.00
2019-03-30T15:30:31.833Z,14.60
2019-03-30T15:33:03.220Z,14.77
2019-03-30T15:35:30.533Z,13.67
2019-03-30T15:37:58.829Z,14.50
2019-03-30T15:40:27.053Z,13.13
2019-03-30T15:42:55.269Z,13.80
2019-03-30T15:45:23.464Z,12.80
2019-03-30T15:47:51.653Z,12.50
2019-03-30T15:50:19.945Z,12.70
2019-03-30T15:52:48.178Z,12.60
2019-03-30T15:55:16.428Z,13.23
2019-03-30T15:57:44.615Z,11.73
2019-03-30T16:00:14.352Z,11.90
2019-03-30T16:02:42.645Z,11.57
2019-03-30T16:05:11.000Z,12.40
2019-03-30T16:07:39.224Z,12.13
2019-03-30T16:10:07.509Z,12.03
2019-03-30T16:12:35.732Z,11.23
2019-03-30T16:15:04.888Z,11.53
2019-03-30T16:17:33.139Z,11.90
2019-03-30T16:20:01.397Z,11.80
2019-03-30T16:22:29.676Z,12.13
2019-03-30T16:24:57.897Z,10.80
2019-03-30T16:27:29.219Z,12.20
2019-03-30T16:29:58.649Z,12.03
2019-03-30T16:32:25.942Z,11.97
2019-03-30T16:34:54.143Z,12.43
2019-03-30T16:37:22.351Z,11.80
2019-03-30T16:39:50.596Z,11.53
2019-03-30T16:42:18.845Z,13.03
2019-03-30T16:44:47.040Z,12.67
2019-03-30T16:47:15.268Z,12.83
2019-03-30T16:52:10.822Z,12.07
2019-03-30T16:54:39.032Z,13.20
2019-03-30T16:57:07.385Z,13.20
2019-03-30T16:59:35.668Z,11.80
2019-03-30T17:02:03.856Z,11.97
2019-03-30T17:04:32.064Z,12.20
2019-03-30T17:07:00.305Z,11.97
2019-03-30T17:09:29.414Z,12.17
2019-03-30T17:11:57.699Z,12.07
2019-03-30T17:14:25.892Z,11.20
2019-03-30T17:16:54.114Z,12.20
2019-03-30T17:19:22.444Z,11.83
2019-03-30T17:21:50.673Z,11.43
2019-03-30T17:24:19.053Z,11.20
2019-03-30T17:26:47.294Z,11.20
2019-03-30T17:29:16.462Z,11.20
2019-03-30T17:31:44.683Z,12.20
2019-03-30T17:34:12.970Z,13.47
2019-03-30T17:36:41.159Z,13.30
2019-03-30T17:39:11.053Z,12.93
2019-03-30T17:41:39.263Z,13.93
2019-03-30T17:44:07.477Z,15.40
2019-03-30T17:49:03.050Z,15.67
2019-03-30T18:55:25.957Z,18.60
2019-03-30T18:57:54.147Z,19.00
2019-03-30T19:05:17.069Z,18.80
2019-03-30T19:07:45.297Z,17.23
2019-03-30T19:10:13.511Z,17.27
2019-03-30T19:20:05.835Z,18.30
2019-03-30T19:22:34.052Z,17.87
2019-03-30T19:25:02.342Z,17.97
2019-03-30T19:27:30.605Z,18.27
2019-03-30T19:29:58.828Z,16.80
2019-03-30T19:32:27.053Z,16.45
2019-03-30T19:34:55.257Z,16.67
2019-03-30T19:37:23.436Z,19.60
2019-03-30T19:39:51.678Z,18.30
2019-03-30T19:42:19.898Z,33.77
2019-03-30T19:44:48.122Z,21.40
2019-03-30T19:47:16.344Z,18.77
2019-03-30T19:49:44.536Z,20.97
2019-03-30T19:52:12.757Z,21.20
2019-03-30T19:54:41.001Z,20.80
2019-03-30T19:57:09.244Z,22.13
2019-03-30T19:59:37.487Z,25.90
2019-03-30T20:02:05.676Z,19.20
2019-03-30T20:04:33.871Z,20.90
2019-03-30T20:07:02.097Z,22.87
2019-03-30T20:09:30.428Z,23.33
2019-03-30T20:11:58.616Z,28.57
2019-03-30T20:14:28.441Z,19.40
2019-03-30T20:16:56.786Z,19.90
2019-03-30T20:19:25.507Z,22.97
2019-03-30T20:21:57.102Z,21.80
2019-03-30T20:24:23.774Z,21.53
2019-03-30T20:26:51.998Z,21.40
2019-03-30T20:29:25.493Z,22.17
2019-03-30T20:31:50.273Z,27.37
2019-03-30T20:34:18.622Z,26.23
2019-03-30T20:36:47.057Z,28.00
2019-03-30T20:39:15.315Z,29.47
2019-03-30T20:41:43.511Z,27.13
2019-03-30T20:44:11.692Z,27.07
2019-03-30T20:46:43.436Z,23.07
2019-03-30T20:49:09.841Z,26.60
2019-03-30T20:51:38.137Z,29.00
2019-03-30T20:54:06.351Z,32.40
2019-03-30T20:56:34.668Z,29.13
2019-03-30T20:59:02.909Z,32.40
2019-03-30T21:01:31.124Z,29.53
2019-03-30T21:03:59.333Z,25.70
2019-03-30T21:06:27.531Z,23.33
2019-03-30T21:08:55.712Z,24.17
2019-03-30T21:11:23.941Z,22.90
2019-03-30T21:13:52.172Z,21.50
2019-03-30T21:16:20.466Z,23.13
2019-03-30T21:18:48.664Z,23.10
2019-03-30T21:21:16.885Z,24.00
2019-03-30T21:23:45.133Z,22.57
2019-03-30T21:26:13.318Z,24.50
2019-03-30T21:28:41.547Z,24.67
2019-03-30T21:31:09.741Z,23.60
2019-03-30T21:33:37.955Z,22.93
2019-03-30T21:36:06.265Z,23.63
2019-03-30T21:38:34.461Z,22.13
2019-03-30T21:41:02.681Z,21.00
2019-03-30T21:43:30.888Z,24.27
2019-03-30T21:45:59.084Z,22.30
2019-03-30T21:48:27.266Z,22.37
2019-03-30T21:50:55.489Z,21.93
2019-03-30T21:53:23.747Z,24.87
2019-03-30T21:55:51.940Z,21.60
2019-03-30T21:58:20.156Z,20.67
2019-03-30T22:00:48.379Z,19.80
2019-03-30T22:03:16.589Z,23.00
2019-03-30T22:05:44.772Z,20.80
2019-03-30T22:08:12.971Z,24.10
2019-03-30T22:10:41.157Z,26.03
2019-03-30T22:13:09.390Z,18.27
2019-03-30T22:15:37.573Z,18.60
2019-03-30T22:18:05.758Z,24.30
2019-03-30T22:20:33.968Z,18.60
2019-03-30T22:23:02.161Z,20.60
2019-03-30T22:25:30.399Z,21.10
2019-03-30T22:27:58.669Z,19.73
2019-03-30T22:30:26.888Z,19.97
2019-03-30T22:32:55.076Z,20.23
2019-03-30T22:35:23.280Z,19.20
2019-03-30T22:37:51.466Z,18.30
2019-03-30T22:40:19.685Z,18.40
2019-03-30T22:42:47.918Z,19.87
2019-03-30T22:45:16.180Z,17.83
2019-03-30T22:47:44.469Z,19.40
2019-03-30T22:50:12.936Z,18.70
2019-03-30T22:52:41.131Z,24.40
2019-03-30T22:55:09.393Z,22.20
2019-03-30T22:57:37.625Z,24.67
2019-03-30T23:00:07.100Z,24.43
2019-03-30T23:02:35.377Z,27.60
2019-03-30T23:05:05.133Z,27.03
2019-03-30T23:07:33.344Z,26.83
2019-03-30T23:10:01.529Z,33.70
2019-03-30T23:12:29.749Z,37.60
2019-03-30T23:14:57.948Z,33.43
2019-03-30T23:17:26.175Z,33.40
2019-03-30T23:19:54.357Z,29.73
2019-03-30T23:22:22.551Z,27.80
2019-03-30T23:24:50.773Z,29.30
2019-03-30T23:27:18.964Z,26.20
2019-03-30T23:29:47.160Z,25.23
2019-03-30T23:32:15.391Z,30.20
2019-03-30T23:34:43.609Z,23.30
2019-03-30T23:37:11.825Z,28.93
2019-03-30T23:39:40.121Z,23.53
2019-03-30T23:42:08.301Z,23.83
2019-03-30T23:44:36.496Z,22.33
2019-03-30T23:47:04.719Z,24.90
2019-03-30T23:49:33.025Z,28.87
2019-03-30T23:52:01.276Z,21.70
2019-03-30T23:54:29.456Z,22.47
2019-03-30T23:56:57.685Z,22.67
2019-03-30T23:59:25.936Z,23.00
